sensor_id;sensor_type;location;lat;lon;timestamp;pressure;altitude;pressure_sealevel;temperature;humidity
29215;BME280;16252;49.816;7.964;2023-02-25T00:01:44;98939.88;;;7.96;52.47
29215;BME280;16252;49.816;7.964;2023-02-25T00:04:10;98939.16;;;7.94;52.55
29215;BME280;16252;49.816;7.964;2023-02-25T00:06:35;98964.31;;;8.01;52.56
29215;BME280;16252;49.816;7.964;2023-02-25T00:09:00;98947.25;;;7.92;52.59
29215;BME280;16252;49.816;7.964;2023-02-25T00:11:25;98930.75;;;7.77;52.57
29215;BME280;16252;49.816;7.964;2023-02-25T00:13:51;98961.19;;;7.96;52.78
29215;BME280;16252;49.816;7.964;2023-02-25T00:16:18;98988.75;;;8.06;53.05
29215;BME280;16252;49.816;7.964;2023-02-25T00:18:43;98970.75;;;7.98;52.78
29215;BME280;16252;49.816;7.964;2023-02-25T00:21:12;98967.09;;;7.99;52.93
29215;BME280;16252;49.816;7.964;2023-02-25T00:23:44;98988.97;;;8.14;52.76
29215;BME280;16252;49.816;7.964;2023-02-25T00:26:10;98950.19;;;7.89;52.92
29215;BME280;16252;49.816;7.964;2023-02-25T00:28:36;98973.72;;;8.05;52.98
29215;BME280;16252;49.816;7.964;2023-02-25T00:31:07;98998.16;;;8.21;52.95
29215;BME280;16252;49.816;7.964;2023-02-25T00:33:32;98981.34;;;8.10;52.99
29215;BME280;16252;49.816;7.964;2023-02-25T00:35:58;99003.75;;;8.18;53.08
29215;BME280;16252;49.816;7.964;2023-02-25T00:38:23;98988.13;;;8.14;53.21
29215;BME280;16252;49.816;7.964;2023-02-25T00:40:48;98970.69;;;8.10;53.10
29215;BME280;16252;49.816;7.964;2023-02-25T00:43:13;98957.50;;;8.08;53.01
29215;BME280;16252;49.816;7.964;2023-02-25T00:45:39;98976.94;;;8.20;52.76
29215;BME280;16252;49.816;7.964;2023-02-25T00:48:05;98984.00;;;8.21;52.75
29215;BME280;16252;49.816;7.964;2023-02-25T00:50:30;98955.94;;;8.06;52.76
29215;BME280;16252;49.816;7.964;2023-02-25T00:52:56;98951.38;;;7.96;52.65
29215;BME280;16252;49.816;7.964;2023-02-25T00:55:21;98962.22;;;8.04;52.58
29215;BME280;16252;49.816;7.964;2023-02-25T00:57:46;98986.09;;;8.06;52.51
29215;BME280;16252;49.816;7.964;2023-02-25T01:00:12;98978.59;;;8.00;52.53
29215;BME280;16252;49.816;7.964;2023-02-25T01:02:44;98993.81;;;8.09;52.66
29215;BME280;16252;49.816;7.964;2023-02-25T01:05:12;98951.78;;;7.80;52.57
29215;BME280;16252;49.816;7.964;2023-02-25T01:07:39;98993.72;;;7.99;52.61
29215;BME280;16252;49.816;7.964;2023-02-25T01:10:05;98972.72;;;7.85;52.51
29215;BME280;16252;49.816;7.964;2023-02-25T01:12:30;98963.16;;;7.71;52.61
29215;BME280;16252;49.816;7.964;2023-02-25T01:14:56;98980.00;;;7.72;52.74
29215;BME280;16252;49.816;7.964;2023-02-25T01:17:22;98977.31;;;7.72;52.79
29215;BME280;16252;49.816;7.964;2023-02-25T01:19:47;98945.06;;;7.54;52.73
29215;BME280;16252;49.816;7.964;2023-02-25T01:22:13;98987.34;;;7.79;52.88
29215;BME280;16252;49.816;7.964;2023-02-25T01:24:39;98988.34;;;7.78;53.03
29215;BME280;16252;49.816;7.964;2023-02-25T01:27:04;98954.25;;;7.61;53.02
29215;BME280;16252;49.816;7.964;2023-02-25T01:29:37;98976.34;;;7.84;53.24
29215;BME280;16252;49.816;7.964;2023-02-25T01:32:06;98967.75;;;7.80;53.17
29215;BME280;16252;49.816;7.964;2023-02-25T01:34:32;98920.38;;;7.52;53.13
29215;BME280;16252;49.816;7.964;2023-02-25T01:36:57;98926.16;;;7.57;53.17
29215;BME280;16252;49.816;7.964;2023-02-25T01:39:24;98969.44;;;7.81;53.13
29215;BME280;16252;49.816;7.964;2023-02-25T01:41:53;98976.34;;;7.84;53.07
29215;BME280;16252;49.816;7.964;2023-02-25T01:44:24;98966.19;;;7.78;52.86
29215;BME280;16252;49.816;7.964;2023-02-25T01:46:53;98944.78;;;7.57;52.70
29215;BME280;16252;49.816;7.964;2023-02-25T01:49:40;98971.25;;;7.81;52.69
29215;BME280;16252;49.816;7.964;2023-02-25T01:52:14;98976.47;;;7.82;52.61
29215;BME280;16252;49.816;7.964;2023-02-25T01:54:41;98972.63;;;7.75;52.61
29215;BME280;16252;49.816;7.964;2023-02-25T01:57:10;98951.22;;;7.66;52.48
29215;BME280;16252;49.816;7.964;2023-02-25T01:59:38;98946.75;;;7.55;52.33
29215;BME280;16252;49.816;7.964;2023-02-25T02:02:07;98953.16;;;7.64;52.27
29215;BME280;16252;49.816;7.964;2023-02-25T02:04:32;98940.97;;;7.50;52.56
29215;BME280;16252;49.816;7.964;2023-02-25T02:06:59;98972.03;;;7.60;52.35
29215;BME280;16252;49.816;7.964;2023-02-25T02:09:27;98981.81;;;7.71;52.67
29215;BME280;16252;49.816;7.964;2023-02-25T02:11:55;98968.28;;;7.63;52.52
29215;BME280;16252;49.816;7.964;2023-02-25T02:14:26;98986.03;;;7.74;52.32
29215;BME280;16252;49.816;7.964;2023-02-25T02:22:25;98999.47;;;7.84;52.26
29215;BME280;16252;49.816;7.964;2023-02-25T02:40:18;98981.03;;;8.03;51.90
29215;BME280;16252;49.816;7.964;2023-02-25T02:45:40;98996.00;;;8.15;51.80
29215;BME280;16252;49.816;7.964;2023-02-25T02:48:13;98993.56;;;8.12;51.92
29215;BME280;16252;49.816;7.964;2023-02-25T02:50:46;98997.41;;;8.19;51.88
29215;BME280;16252;49.816;7.964;2023-02-25T02:53:26;99002.38;;;8.24;51.87
29215;BME280;16252;49.816;7.964;2023-02-25T02:55:55;98973.81;;;8.15;51.86
29215;BME280;16252;49.816;7.964;2023-02-25T02:58:35;98998.97;;;8.33;51.46
29215;BME280;16252;49.816;7.964;2023-02-25T03:01:10;98997.41;;;8.31;51.45
29215;BME280;16252;49.816;7.964;2023-02-25T03:03:44;98994.00;;;8.29;51.52
29215;BME280;16252;49.816;7.964;2023-02-25T03:06:14;99013.38;;;8.31;51.54
29215;BME280;16252;49.816;7.964;2023-02-25T03:08:43;99005.00;;;8.35;51.56
29215;BME280;16252;49.816;7.964;2023-02-25T03:11:12;98985.66;;;8.22;51.63
29215;BME280;16252;49.816;7.964;2023-02-25T03:13:38;98999.81;;;8.34;51.70
29215;BME280;16252;49.816;7.964;2023-02-25T03:16:07;98984.56;;;8.24;51.59
29215;BME280;16252;49.816;7.964;2023-02-25T03:18:36;98990.56;;;8.38;51.61
29215;BME280;16252;49.816;7.964;2023-02-25T03:21:06;98959.75;;;8.24;51.72
29215;BME280;16252;49.816;7.964;2023-02-25T03:23:37;98984.53;;;8.36;51.69
29215;BME280;16252;49.816;7.964;2023-02-25T03:26:20;98995.28;;;8.45;51.63
29215;BME280;16252;49.816;7.964;2023-02-25T03:28:47;98991.66;;;8.35;51.58
29215;BME280;16252;49.816;7.964;2023-02-25T03:31:25;98993.72;;;8.43;51.44
29215;BME280;16252;49.816;7.964;2023-02-25T03:34:01;98982.72;;;8.36;51.55
29215;BME280;16252;49.816;7.964;2023-02-25T03:36:32;98973.91;;;8.24;51.55
29215;BME280;16252;49.816;7.964;2023-02-25T03:39:04;98994.81;;;8.40;51.42
29215;BME280;16252;49.816;7.964;2023-02-25T03:41:33;98994.94;;;8.39;51.44
29215;BME280;16252;49.816;7.964;2023-02-25T03:44:00;98996.16;;;8.35;51.29
29215;BME280;16252;49.816;7.964;2023-02-25T03:46:29;99006.34;;;8.41;51.54
29215;BME280;16252;49.816;7.964;2023-02-25T03:48:57;99022.09;;;8.44;51.61
29215;BME280;16252;49.816;7.964;2023-02-25T03:51:29;98968.94;;;8.20;51.65
29215;BME280;16252;49.816;7.964;2023-02-25T03:53:55;99014.47;;;8.39;51.61
29215;BME280;16252;49.816;7.964;2023-02-25T03:56:21;99024.03;;;8.42;51.75
29215;BME280;16252;49.816;7.964;2023-02-25T03:58:46;99019.19;;;8.36;51.70
29215;BME280;16252;49.816;7.964;2023-02-25T04:01:17;99023.91;;;8.43;51.67
29215;BME280;16252;49.816;7.964;2023-02-25T04:03:45;99033.69;;;8.43;51.74
29215;BME280;16252;49.816;7.964;2023-02-25T04:06:12;99039.28;;;8.51;51.63
29215;BME280;16252;49.816;7.964;2023-02-25T04:08:37;99025.13;;;8.39;51.78
29215;BME280;16252;49.816;7.964;2023-02-25T04:11:03;99005.03;;;8.24;51.60
29215;BME280;16252;49.816;7.964;2023-02-25T04:13:28;99051.16;;;8.47;51.79
29215;BME280;16252;49.816;7.964;2023-02-25T04:15:53;99021.25;;;8.32;51.55
29215;BME280;16252;49.816;7.964;2023-02-25T04:18:19;99039.19;;;8.41;51.58
29215;BME280;16252;49.816;7.964;2023-02-25T04:20:44;99035.53;;;8.42;51.55
29215;BME280;16252;49.816;7.964;2023-02-25T04:23:13;99052.06;;;8.57;51.45
29215;BME280;16252;49.816;7.964;2023-02-25T04:25:39;99029.34;;;8.42;51.39
29215;BME280;16252;49.816;7.964;2023-02-25T04:28:04;99031.19;;;8.41;51.14
29215;BME280;16252;49.816;7.964;2023-02-25T04:30:30;99035.69;;;8.41;51.45
29215;BME280;16252;49.816;7.964;2023-02-25T04:32:55;99007.13;;;8.20;51.38
29215;BME280;16252;49.816;7.964;2023-02-25T04:35:20;99051.16;;;8.47;51.42
29215;BME280;16252;49.816;7.964;2023-02-25T04:37:45;99004.94;;;8.14;51.26
29215;BME280;16252;49.816;7.964;2023-02-25T04:40:18;99070.28;;;8.52;51.31
29215;BME280;16252;49.816;7.964;2023-02-25T04:42:45;99053.69;;;8.37;51.35
29215;BME280;16252;49.816;7.964;2023-02-25T04:45:12;99055.03;;;8.43;51.29
29215;BME280;16252;49.816;7.964;2023-02-25T04:47:37;99055.41;;;8.38;51.47
29215;BME280;16252;49.816;7.964;2023-02-25T04:50:04;99065.78;;;8.53;51.18
29215;BME280;16252;49.816;7.964;2023-02-25T04:52:30;99045.34;;;8.42;51.18
29215;BME280;16252;49.816;7.964;2023-02-25T04:54:55;99040.13;;;8.40;51.22
29215;BME280;16252;49.816;7.964;2023-02-25T04:57:20;99041.19;;;8.38;51.22
29215;BME280;16252;49.816;7.964;2023-02-25T04:59:45;99040.03;;;8.42;51.29
29215;BME280;16252;49.816;7.964;2023-02-25T05:02:11;99049.22;;;8.49;51.21
29215;BME280;16252;49.816;7.964;2023-02-25T05:04:37;99043.88;;;8.49;51.24
29215;BME280;16252;49.816;7.964;2023-02-25T05:07:04;99049.22;;;8.49;51.07
29215;BME280;16252;49.816;7.964;2023-02-25T05:09:30;99020.88;;;8.37;51.09
29215;BME280;16252;49.816;7.964;2023-02-25T05:11:55;99042.63;;;8.53;51.01
29215;BME280;16252;49.816;7.964;2023-02-25T05:14:20;99034.16;;;8.48;50.91
29215;BME280;16252;49.816;7.964;2023-02-25T05:16:46;99031.03;;;8.43;50.72
29215;BME280;16252;49.816;7.964;2023-02-25T05:19:22;99044.59;;;8.51;50.56
29215;BME280;16252;49.816;7.964;2023-02-25T05:21:52;99056.94;;;8.52;50.77
29215;BME280;16252;49.816;7.964;2023-02-25T05:24:17;99050.56;;;8.43;50.79
29215;BME280;16252;49.816;7.964;2023-02-25T05:26:43;99050.28;;;8.35;50.79
29215;BME280;16252;49.816;7.964;2023-02-25T05:29:09;99046.06;;;8.33;50.87
29215;BME280;16252;49.816;7.964;2023-02-25T05:31:35;99070.06;;;8.44;50.91
29215;BME280;16252;49.816;7.964;2023-02-25T05:34:00;99044.75;;;8.27;50.96
29215;BME280;16252;49.816;7.964;2023-02-25T05:36:26;99054.22;;;8.31;50.79
29215;BME280;16252;49.816;7.964;2023-02-25T05:38:53;99075.13;;;8.47;50.61
29215;BME280;16252;49.816;7.964;2023-02-25T05:41:19;99045.38;;;8.31;50.79
29215;BME280;16252;49.816;7.964;2023-02-25T05:43:44;99012.59;;;8.08;50.75
29215;BME280;16252;49.816;7.964;2023-02-25T05:46:11;99035.47;;;8.21;50.63
29215;BME280;16252;49.816;7.964;2023-02-25T05:48:39;99071.03;;;8.43;50.79
29215;BME280;16252;49.816;7.964;2023-02-25T05:51:13;99066.69;;;8.42;50.77
29215;BME280;16252;49.816;7.964;2023-02-25T05:53:39;99060.72;;;8.38;50.92
29215;BME280;16252;49.816;7.964;2023-02-25T05:56:11;99034.72;;;8.31;51.01
29215;BME280;16252;49.816;7.964;2023-02-25T05:58:37;99051.41;;;8.33;50.84
29215;BME280;16252;49.816;7.964;2023-02-25T06:01:10;99049.47;;;8.35;50.84
29215;BME280;16252;49.816;7.964;2023-02-25T06:03:38;99071.75;;;8.34;50.85
29215;BME280;16252;49.816;7.964;2023-02-25T06:06:04;99048.66;;;8.23;50.75
29215;BME280;16252;49.816;7.964;2023-02-25T06:08:30;99043.34;;;8.23;50.83
29215;BME280;16252;49.816;7.964;2023-02-25T06:10:55;99061.84;;;8.36;50.58
29215;BME280;16252;49.816;7.964;2023-02-25T06:13:21;99052.03;;;8.25;50.75
29215;BME280;16252;49.816;7.964;2023-02-25T06:15:47;99050.84;;;8.18;50.69
29215;BME280;16252;49.816;7.964;2023-02-25T06:18:12;99050.97;;;8.16;50.77
29215;BME280;16252;49.816;7.964;2023-02-25T06:20:37;99076.88;;;8.25;50.84
29215;BME280;16252;49.816;7.964;2023-02-25T06:23:03;99071.06;;;8.20;50.72
29215;BME280;16252;49.816;7.964;2023-02-25T06:25:29;99083.31;;;8.23;50.91
29215;BME280;16252;49.816;7.964;2023-02-25T06:27:58;99067.22;;;8.13;50.88
29215;BME280;16252;49.816;7.964;2023-02-25T06:30:24;99065.16;;;8.06;50.79
29215;BME280;16252;49.816;7.964;2023-02-25T06:32:49;99073.16;;;8.06;50.84
29215;BME280;16252;49.816;7.964;2023-02-25T06:35:15;99037.47;;;7.86;50.77
29215;BME280;16252;49.816;7.964;2023-02-25T06:37:40;99042.19;;;7.82;50.62
29215;BME280;16252;49.816;7.964;2023-02-25T06:40:06;99073.31;;;7.93;50.59
29215;BME280;16252;49.816;7.964;2023-02-25T06:42:32;99098.72;;;7.97;50.90
29215;BME280;16252;49.816;7.964;2023-02-25T06:44:58;99094.63;;;7.93;50.72
29215;BME280;16252;49.816;7.964;2023-02-25T06:47:23;99081.66;;;7.77;50.52
29215;BME280;16252;49.816;7.964;2023-02-25T06:49:48;99099.94;;;7.81;50.91
29215;BME280;16252;49.816;7.964;2023-02-25T06:52:13;99104.19;;;7.73;50.91
29215;BME280;16252;49.816;7.964;2023-02-25T06:54:39;99079.13;;;7.53;50.79
29215;BME280;16252;49.816;7.964;2023-02-25T06:57:04;99092.06;;;7.57;51.08
29215;BME280;16252;49.816;7.964;2023-02-25T06:59:29;99116.28;;;7.66;51.12
29215;BME280;16252;49.816;7.964;2023-02-25T07:01:54;99079.81;;;7.44;51.20
29215;BME280;16252;49.816;7.964;2023-02-25T07:04:20;99100.16;;;7.56;51.30
29215;BME280;16252;49.816;7.964;2023-02-25T07:06:45;99116.03;;;7.57;51.18
29215;BME280;16252;49.816;7.964;2023-02-25T07:09:10;99113.47;;;7.56;51.25
29215;BME280;16252;49.816;7.964;2023-02-25T07:11:36;99110.22;;;7.52;51.45
29215;BME280;16252;49.816;7.964;2023-02-25T07:14:03;99133.09;;;7.66;51.41
29215;BME280;16252;49.816;7.964;2023-02-25T07:16:29;99128.50;;;7.68;51.42
29215;BME280;16252;49.816;7.964;2023-02-25T07:18:55;99100.16;;;7.56;51.56
29215;BME280;16252;49.816;7.964;2023-02-25T07:21:21;99079.47;;;7.48;51.92
29215;BME280;16252;49.816;7.964;2023-02-25T07:23:47;99139.50;;;7.86;51.79
29215;BME280;16252;49.816;7.964;2023-02-25T07:26:14;99134.31;;;7.96;51.78
29215;BME280;16252;49.816;7.964;2023-02-25T07:28:40;99121.59;;;7.88;51.75
29215;BME280;16252;49.816;7.964;2023-02-25T07:31:14;99116.25;;;7.99;51.80
29215;BME280;16252;49.816;7.964;2023-02-25T07:33:40;99153.69;;;8.20;51.62
29215;BME280;16252;49.816;7.964;2023-02-25T07:36:06;99142.03;;;8.21;51.58
29215;BME280;16252;49.816;7.964;2023-02-25T07:38:31;99142.41;;;8.17;51.65
29215;BME280;16252;49.816;7.964;2023-02-25T07:41:02;99141.94;;;8.23;51.59
29215;BME280;16252;49.816;7.964;2023-02-25T07:43:28;99147.75;;;8.28;51.78
29215;BME280;16252;49.816;7.964;2023-02-25T07:45:56;99129.31;;;8.25;51.68
29215;BME280;16252;49.816;7.964;2023-02-25T07:48:21;99101.59;;;8.16;51.73
29215;BME280;16252;49.816;7.964;2023-02-25T07:50:46;99140.47;;;8.41;51.68
29215;BME280;16252;49.816;7.964;2023-02-25T07:53:12;99143.47;;;8.48;51.79
29215;BME280;16252;49.816;7.964;2023-02-25T07:55:37;99137.66;;;8.54;51.57
29215;BME280;16252;49.816;7.964;2023-02-25T07:58:02;99107.72;;;8.51;51.48
29215;BME280;16252;49.816;7.964;2023-02-25T08:00:27;99147.78;;;8.72;51.36
29215;BME280;16252;49.816;7.964;2023-02-25T08:02:53;99133.63;;;8.71;51.16
29215;BME280;16252;49.816;7.964;2023-02-25T08:05:19;99123.59;;;8.63;51.22
29215;BME280;16252;49.816;7.964;2023-02-25T08:07:47;99152.88;;;8.75;51.32
29215;BME280;16252;49.816;7.964;2023-02-25T08:10:13;99121.97;;;8.72;51.58
29215;BME280;16252;49.816;7.964;2023-02-25T08:12:38;99167.81;;;8.98;51.64
29215;BME280;16252;49.816;7.964;2023-02-25T08:15:04;99141.75;;;8.90;51.54
29215;BME280;16252;49.816;7.964;2023-02-25T08:17:33;99132.53;;;8.95;51.68
29215;BME280;16252;49.816;7.964;2023-02-25T08:19:58;99147.16;;;9.11;51.62
29215;BME280;16252;49.816;7.964;2023-02-25T08:22:23;99159.59;;;9.22;51.58
29215;BME280;16252;49.816;7.964;2023-02-25T08:24:49;99136.53;;;9.21;51.40
29215;BME280;16252;49.816;7.964;2023-02-25T08:27:14;99139.00;;;9.34;51.42
29215;BME280;16252;49.816;7.964;2023-02-25T08:29:40;99121.31;;;9.33;51.43
29215;BME280;16252;49.816;7.964;2023-02-25T08:32:05;99136.00;;;9.48;51.32
29215;BME280;16252;49.816;7.964;2023-02-25T08:34:30;99139.47;;;9.60;51.20
29215;BME280;16252;49.816;7.964;2023-02-25T08:36:56;99131.31;;;9.62;51.38
29215;BME280;16252;49.816;7.964;2023-02-25T08:39:21;99165.13;;;9.72;51.61
29215;BME280;16252;49.816;7.964;2023-02-25T08:41:47;99130.84;;;9.57;51.63
29215;BME280;16252;49.816;7.964;2023-02-25T08:44:12;99096.56;;;9.31;51.39
29215;BME280;16252;49.816;7.964;2023-02-25T08:46:37;99160.69;;;9.62;51.50
29215;BME280;16252;49.816;7.964;2023-02-25T08:49:04;99161.34;;;9.54;51.45
29215;BME280;16252;49.816;7.964;2023-02-25T08:51:31;99181.34;;;9.60;51.62
29215;BME280;16252;49.816;7.964;2023-02-25T08:54:05;99174.91;;;9.62;51.68
29215;BME280;16252;49.816;7.964;2023-02-25T08:56:33;99158.47;;;9.46;51.96
29215;BME280;16252;49.816;7.964;2023-02-25T08:58:59;99162.59;;;9.50;51.69
29215;BME280;16252;49.816;7.964;2023-02-25T09:01:25;99159.38;;;9.56;51.74
29215;BME280;16252;49.816;7.964;2023-02-25T09:03:50;99141.22;;;9.50;51.48
29215;BME280;16252;49.816;7.964;2023-02-25T09:06:23;99178.22;;;9.75;51.36
29215;BME280;16252;49.816;7.964;2023-02-25T09:08:50;99162.00;;;9.67;51.20
29215;BME280;16252;49.816;7.964;2023-02-25T09:11:16;99176.38;;;9.76;51.15
29215;BME280;16252;49.816;7.964;2023-02-25T09:13:42;99148.19;;;9.62;51.04
29215;BME280;16252;49.816;7.964;2023-02-25T09:16:07;99175.22;;;9.69;50.67
29215;BME280;16252;49.816;7.964;2023-02-25T09:18:33;99175.94;;;9.71;50.98
29215;BME280;16252;49.816;7.964;2023-02-25T09:20:58;99162.25;;;9.64;51.05
29215;BME280;16252;49.816;7.964;2023-02-25T09:23:23;99147.88;;;9.55;51.06
29215;BME280;16252;49.816;7.964;2023-02-25T09:25:49;99150.41;;;9.57;51.04
29215;BME280;16252;49.816;7.964;2023-02-25T09:28:15;99156.41;;;9.70;51.34
29215;BME280;16252;49.816;7.964;2023-02-25T09:30:44;99151.16;;;9.69;51.47
29215;BME280;16252;49.816;7.964;2023-02-25T09:33:09;99152.66;;;9.83;51.75
29215;BME280;16252;49.816;7.964;2023-02-25T09:35:35;99142.88;;;9.93;51.22
29215;BME280;16252;49.816;7.964;2023-02-25T09:38:00;99145.75;;;10.11;50.56
29215;BME280;16252;49.816;7.964;2023-02-25T09:40:25;99157.72;;;10.16;50.59
29215;BME280;16252;49.816;7.964;2023-02-25T09:43:00;99150.69;;;10.15;50.43
29215;BME280;16252;49.816;7.964;2023-02-25T09:45:30;99166.75;;;10.25;49.66
29215;BME280;16252;49.816;7.964;2023-02-25T09:48:04;99173.38;;;10.21;49.66
29215;BME280;16252;49.816;7.964;2023-02-25T09:50:49;99182.22;;;10.22;49.76
29215;BME280;16252;49.816;7.964;2023-02-25T09:53:24;99173.69;;;10.28;49.75
29215;BME280;16252;49.816;7.964;2023-02-25T09:55:52;99162.78;;;10.19;49.80
29215;BME280;16252;49.816;7.964;2023-02-25T09:58:23;99172.56;;;10.30;49.57
29215;BME280;16252;49.816;7.964;2023-02-25T10:03:24;99141.84;;;10.25;49.67
29215;BME280;16252;49.816;7.964;2023-02-25T10:06:03;99105.94;;;10.08;49.37
29215;BME280;16252;49.816;7.964;2023-02-25T10:08:50;99127.63;;;10.24;49.24
29215;BME280;16252;49.816;7.964;2023-02-25T10:11:42;99125.31;;;10.31;49.87
29215;BME280;16252;49.816;7.964;2023-02-25T10:14:31;99158.72;;;10.56;47.89
29215;BME280;16252;49.816;7.964;2023-02-25T10:17:24;99156.47;;;10.71;49.28
29215;BME280;16252;49.816;7.964;2023-02-25T10:20:18;99135.06;;;10.71;49.08
29215;BME280;16252;49.816;7.964;2023-02-25T10:25:27;99131.44;;;10.91;48.96
29215;BME280;16252;49.816;7.964;2023-02-25T10:28:05;99157.50;;;11.28;48.93
29215;BME280;16252;49.816;7.964;2023-02-25T10:33:15;99126.88;;;11.50;48.73
29215;BME280;16252;49.816;7.964;2023-02-25T10:35:44;99132.47;;;11.66;48.35
29215;BME280;16252;49.816;7.964;2023-02-25T10:38:10;99112.88;;;11.66;47.94
29215;BME280;16252;49.816;7.964;2023-02-25T10:40:38;99147.81;;;11.93;48.00
29215;BME280;16252;49.816;7.964;2023-02-25T10:43:22;99148.41;;;12.15;48.59
29215;BME280;16252;49.816;7.964;2023-02-25T10:45:53;99139.03;;;12.29;47.26
29215;BME280;16252;49.816;7.964;2023-02-25T10:48:23;99146.53;;;12.53;46.73
29215;BME280;16252;49.816;7.964;2023-02-25T10:51:11;99148.94;;;12.74;46.09
29215;BME280;16252;49.816;7.964;2023-02-25T10:56:23;99146.66;;;12.79;45.39
29215;BME280;16252;49.816;7.964;2023-02-25T10:59:02;99135.75;;;12.80;46.31
29215;BME280;16252;49.816;7.964;2023-02-25T11:01:38;99153.19;;;13.30;48.76
29215;BME280;16252;49.816;7.964;2023-02-25T11:04:11;99162.72;;;13.69;47.11
29215;BME280;16252;49.816;7.964;2023-02-25T11:06:40;99117.63;;;13.80;46.71
29215;BME280;16252;49.816;7.964;2023-02-25T11:09:28;99155.63;;;14.20;45.66
29215;BME280;16252;49.816;7.964;2023-02-25T11:14:34;99135.03;;;14.37;45.00
29215;BME280;16252;49.816;7.964;2023-02-25T11:17:14;99133.44;;;14.60;43.93
29215;BME280;16252;49.816;7.964;2023-02-25T11:19:51;99133.16;;;14.80;42.49
29215;BME280;16252;49.816;7.964;2023-02-25T11:22:29;99117.84;;;14.88;43.92
29215;BME280;16252;49.816;7.964;2023-02-25T11:25:04;99143.66;;;15.40;43.60
29215;BME280;16252;49.816;7.964;2023-02-25T11:27:39;99148.69;;;15.68;42.66
29215;BME280;16252;49.816;7.964;2023-02-25T11:30:19;99109.25;;;15.58;41.52
29215;BME280;16252;49.816;7.964;2023-02-25T11:32:53;99144.31;;;15.83;41.10
29215;BME280;16252;49.816;7.964;2023-02-25T11:35:25;99118.53;;;15.56;40.41
29215;BME280;16252;49.816;7.964;2023-02-25T11:37:55;99114.53;;;15.27;40.40
29215;BME280;16252;49.816;7.964;2023-02-25T11:40:27;99129.16;;;15.08;38.69
29215;BME280;16252;49.816;7.964;2023-02-25T11:45:31;99103.66;;;14.19;40.60
29215;BME280;16252;49.816;7.964;2023-02-25T11:47:57;99055.84;;;13.62;40.47
29215;BME280;16252;49.816;7.964;2023-02-25T11:53:52;99100.84;;;13.34;42.20
29215;BME280;16252;49.816;7.964;2023-02-25T11:56:25;99117.56;;;13.10;40.96
29215;BME280;16252;49.816;7.964;2023-02-25T12:18:50;99121.50;;;12.80;42.70
29215;BME280;16252;49.816;7.964;2023-02-25T12:21:32;99112.59;;;12.62;42.62
29215;BME280;16252;49.816;7.964;2023-02-25T12:27:16;99128.28;;;12.39;43.20
29215;BME280;16252;49.816;7.964;2023-02-25T12:33:05;99120.63;;;12.16;42.56
29215;BME280;16252;49.816;7.964;2023-02-25T12:41:29;99110.19;;;11.76;43.92
29215;BME280;16252;49.816;7.964;2023-02-25T12:44:14;99117.94;;;11.69;43.38
29215;BME280;16252;49.816;7.964;2023-02-25T12:46:53;99130.13;;;11.54;44.21
29215;BME280;16252;49.816;7.964;2023-02-25T12:52:28;99141.56;;;11.26;44.62
29215;BME280;16252;49.816;7.964;2023-02-25T12:55:18;99133.69;;;11.05;45.24
29215;BME280;16252;49.816;7.964;2023-02-25T12:58:06;99160.88;;;11.01;45.54
29215;BME280;16252;49.816;7.964;2023-02-25T13:09:25;99160.03;;;10.71;46.29
29215;BME280;16252;49.816;7.964;2023-02-25T13:14:42;99108.44;;;10.50;46.21
29215;BME280;16252;49.816;7.964;2023-02-25T13:17:46;99156.63;;;10.69;46.04
29215;BME280;16252;49.816;7.964;2023-02-25T13:28:43;99139.56;;;10.41;46.79
29215;BME280;16252;49.816;7.964;2023-02-25T13:31:39;99162.38;;;10.55;46.39
29215;BME280;16252;49.816;7.964;2023-02-25T13:40:15;99128.72;;;10.12;46.27
29215;BME280;16252;49.816;7.964;2023-02-25T13:53:15;99148.59;;;9.88;46.49
29215;BME280;16252;49.816;7.964;2023-02-25T13:56:11;99152.00;;;9.90;46.98
29215;BME280;16252;49.816;7.964;2023-02-25T13:58:51;99152.00;;;9.90;46.87
29215;BME280;16252;49.816;7.964;2023-02-25T14:04:18;99156.22;;;9.93;47.13
29215;BME280;16252;49.816;7.964;2023-02-25T14:07:04;99150.88;;;9.93;47.09
29215;BME280;16252;49.816;7.964;2023-02-25T14:12:36;99172.06;;;9.85;49.25
29215;BME280;16252;49.816;7.964;2023-02-25T14:17:52;99129.50;;;9.20;48.71
29215;BME280;16252;49.816;7.964;2023-02-25T14:20:32;99191.69;;;9.32;50.85
29215;BME280;16252;49.816;7.964;2023-02-25T14:23:07;99186.91;;;9.15;50.13
29215;BME280;16252;49.816;7.964;2023-02-25T14:26:09;99195.66;;;9.17;49.96
29215;BME280;16252;49.816;7.964;2023-02-25T14:34:59;99203.69;;;9.05;49.52
29215;BME280;16252;49.816;7.964;2023-02-25T14:43:07;99211.97;;;8.91;50.69
29215;BME280;16252;49.816;7.964;2023-02-25T14:45:42;99194.31;;;8.79;50.65
29215;BME280;16252;49.816;7.964;2023-02-25T14:58:48;99220.16;;;9.10;50.36
29215;BME280;16252;49.816;7.964;2023-02-25T15:01:37;99210.22;;;9.13;50.44
29215;BME280;16252;49.816;7.964;2023-02-25T15:04:17;99213.44;;;9.27;50.20
29215;BME280;16252;49.816;7.964;2023-02-25T15:06:58;99212.06;;;9.33;50.10
29215;BME280;16252;49.816;7.964;2023-02-25T15:12:25;99217.75;;;9.40;49.72
29215;BME280;16252;49.816;7.964;2023-02-25T15:20:36;99187.78;;;9.36;49.70
29215;BME280;16252;49.816;7.964;2023-02-25T15:23:14;99219.69;;;9.59;49.85
29215;BME280;16252;49.816;7.964;2023-02-25T15:33:41;99223.75;;;9.74;48.91
29215;BME280;16252;49.816;7.964;2023-02-25T15:38:39;99244.09;;;9.65;48.82
29215;BME280;16252;49.816;7.964;2023-02-25T15:46:49;99246.88;;;9.64;47.64
29215;BME280;16252;49.816;7.964;2023-02-25T15:49:35;99242.91;;;9.58;47.81
29215;BME280;16252;49.816;7.964;2023-02-25T15:52:02;99240.53;;;9.44;47.72
29215;BME280;16252;49.816;7.964;2023-02-25T15:59:49;99278.00;;;9.53;47.42
29215;BME280;16252;49.816;7.964;2023-02-25T16:07:38;99239.13;;;8.96;47.24
29215;BME280;16252;49.816;7.964;2023-02-25T16:10:18;99295.66;;;9.33;47.12
29215;BME280;16252;49.816;7.964;2023-02-25T16:12:48;99293.03;;;9.22;46.83
29215;BME280;16252;49.816;7.964;2023-02-25T16:17:45;99281.81;;;8.96;46.12
29215;BME280;16252;49.816;7.964;2023-02-25T16:20:18;99326.75;;;9.23;46.12
29215;BME280;16252;49.816;7.964;2023-02-25T16:22:46;99325.94;;;9.11;46.23
29215;BME280;16252;49.816;7.964;2023-02-25T16:25:14;99331.03;;;9.15;46.45
29215;BME280;16252;49.816;7.964;2023-02-25T16:27:53;99320.84;;;9.08;46.28